Time;durP1;ratioP1;P1;durP2;ratioP2;P2;SDS_P1;SDS_P2;PMS_P1;PMS_P2;Temp;Humidity;BMP_temperature;BMP_pressure;BME280_temperature;BME280_humidity;BME280_pressure;Samples;Min_cycle;Max_cycle;Signal;HPM_P1;HPM_P2
2022/03/24 00:02:06;;;;;;;22.08;16.58;;;;;;;;;;5119271;27;20609;-11
2022/03/24 00:04:34;;;;;;;25.92;16.23;;;;;;;;;;5134505;27;20227;-11
2022/03/24 00:07:01;;;;;;;22.55;16.38;;;;;;;;;;5136128;27;20931;-13
2022/03/24 00:09:29;;;;;;;25.27;17.55;;;;;;;;;;5134905;27;20235;-12
2022/03/24 00:11:57;;;;;;;23.83;17.33;;;;;;;;;;5132788;27;20814;-14
2022/03/24 00:14:24;;;;;;;23.35;18.15;;;;;;;;;;5135985;27;20408;-14
2022/03/24 00:16:52;;;;;;;25.52;17.98;;;;;;;;;;5128003;27;20427;-12
2022/03/24 00:19:19;;;;;;;29.70;17.80;;;;;;;;;;5135142;27;20429;-13
2022/03/24 00:21:46;;;;;;;43.15;17.58;;;;;;;;;;5133800;27;20232;-14
2022/03/24 00:24:14;;;;;;;27.27;16.13;;;;;;;;;;5135117;27;20223;-12
2022/03/24 00:26:43;;;;;;;22.85;16.40;;;;;;;;;;5134894;27;20227;-12
2022/03/24 00:29:10;;;;;;;25.02;16.95;;;;;;;;;;5140713;27;20701;-11
2022/03/24 00:31:38;;;;;;;17.17;15.02;;;;;;;;;;5146714;27;20227;-12
2022/03/24 00:34:05;;;;;;;23.73;16.80;;;;;;;;;;5155940;27;20223;-12
2022/03/24 00:36:33;;;;;;;24.30;18.23;;;;;;;;;;5144740;27;20698;-12
2022/03/24 00:39:00;;;;;;;23.83;17.23;;;;;;;;;;5135222;27;20228;-12
2022/03/24 00:41:28;;;;;;;29.63;17.33;;;;;;;;;;5131798;27;20232;-14
2022/03/24 00:43:56;;;;;;;23.83;16.92;;;;;;;;;;5114889;27;20611;-13
2022/03/24 00:46:24;;;;;;;21.63;16.33;;;;;;;;;;5126011;27;20369;-13
2022/03/24 00:48:51;;;;;;;22.15;16.20;;;;;;;;;;5134563;27;20252;-13
2022/03/24 00:51:19;;;;;;;18.92;15.88;;;;;;;;;;5134716;27;20261;-13
2022/03/24 00:53:46;;;;;;;21.83;16.35;;;;;;;;;;5120675;27;20748;-10
2022/03/24 00:56:13;;;;;;;19.98;15.55;;;;;;;;;;5114314;27;20255;-11
2022/03/24 00:58:41;;;;;;;18.48;16.25;;;;;;;;;;5114230;27;20224;-11
2022/03/24 01:01:12;;;;;;;23.77;16.40;;;;;;;;;;5130932;27;21040;-13
2022/03/24 01:03:40;;;;;;;18.77;15.15;;;;;;;;;;5129933;27;20251;-13
2022/03/24 01:06:07;;;;;;;18.55;15.15;;;;;;;;;;5114201;27;20232;-13
2022/03/24 01:08:34;;;;;;;18.70;15.70;;;;;;;;;;5114517;27;20234;-12
2022/03/24 01:11:05;;;;;;;19.10;15.60;;;;;;;;;;5114090;27;20220;-12
2022/03/24 01:13:34;;;;;;;20.60;15.18;;;;;;;;;;5134684;27;20701;-13
2022/03/24 01:16:03;;;;;;;22.90;15.13;;;;;;;;;;5125759;27;20257;-13
2022/03/24 01:18:34;;;;;;;19.90;15.23;;;;;;;;;;5134866;27;21004;-12
2022/03/24 01:21:03;;;;;;;17.92;15.15;;;;;;;;;;5125188;27;20232;-11
2022/03/24 01:23:32;;;;;;;17.15;14.73;;;;;;;;;;5115809;27;20949;-12
2022/03/24 01:26:00;;;;;;;18.65;15.73;;;;;;;;;;5126864;27;20707;-14
2022/03/24 01:28:28;;;;;;;18.02;14.65;;;;;;;;;;5124585;27;20236;-13
2022/03/24 01:30:55;;;;;;;18.15;14.88;;;;;;;;;;5120528;27;20232;-13
2022/03/24 01:33:23;;;;;;;18.33;14.35;;;;;;;;;;5133715;27;20231;-12
2022/03/24 01:35:52;;;;;;;17.02;14.52;;;;;;;;;;5133755;27;20233;-10
2022/03/24 01:38:19;;;;;;;18.75;14.95;;;;;;;;;;5134168;27;20222;-12
2022/03/24 01:40:47;;;;;;;17.08;13.75;;;;;;;;;;5133724;27;20224;-12
2022/03/24 01:43:14;;;;;;;17.98;14.88;;;;;;;;;;5133862;27;20243;-12
2022/03/24 01:45:42;;;;;;;18.08;15.25;;;;;;;;;;5133988;27;20985;-13
2022/03/24 01:48:09;;;;;;;16.65;14.57;;;;;;;;;;5133613;27;20207;-14
2022/03/24 01:50:37;;;;;;;17.88;14.77;;;;;;;;;;5134399;27;20228;-13
2022/03/24 01:53:06;;;;;;;18.65;14.60;;;;;;;;;;5133350;27;20258;-12
2022/03/24 01:55:34;;;;;;;15.52;13.38;;;;;;;;;;5134195;27;20227;-11
2022/03/24 01:58:02;;;;;;;17.65;13.95;;;;;;;;;;5133861;27;20227;-13
2022/03/24 02:00:29;;;;;;;16.38;13.80;;;;;;;;;;5132857;27;20223;-13
2022/03/24 02:02:58;;;;;;;19.65;14.85;;;;;;;;;;5125958;27;20240;-13
2022/03/24 02:05:25;;;;;;;15.38;13.40;;;;;;;;;;5113625;27;20733;-12
2022/03/24 02:07:52;;;;;;;15.68;13.60;;;;;;;;;;5113134;27;20216;-13
2022/03/24 02:10:21;;;;;;;15.60;13.15;;;;;;;;;;5113475;27;20259;-13
2022/03/24 02:12:56;;;;;;;17.23;13.50;;;;;;;;;;5127643;27;20710;-13
2022/03/24 02:15:24;;;;;;;15.40;13.15;;;;;;;;;;5116601;27;20238;-13
2022/03/24 02:17:52;;;;;;;16.38;12.13;;;;;;;;;;5133417;27;20242;-12
2022/03/24 02:20:20;;;;;;;17.58;13.50;;;;;;;;;;5133561;27;20219;-13
2022/03/24 02:22:48;;;;;;;17.58;13.18;;;;;;;;;;5132935;27;20717;-13
2022/03/24 02:25:16;;;;;;;16.75;12.65;;;;;;;;;;5125118;27;20239;-12
2022/03/24 02:27:47;;;;;;;16.13;13.32;;;;;;;;;;5133252;27;20224;-12
2022/03/24 02:30:14;;;;;;;17.23;13.38;;;;;;;;;;5133557;27;20227;-12
2022/03/24 02:32:41;;;;;;;14.27;12.77;;;;;;;;;;5133717;27;20698;-12
2022/03/24 02:35:09;;;;;;;16.77;13.10;;;;;;;;;;5132419;27;20238;-10
2022/03/24 02:37:36;;;;;;;15.68;12.98;;;;;;;;;;5112732;27;20259;-12
2022/03/24 02:40:05;;;;;;;14.35;12.85;;;;;;;;;;5112424;27;20220;-13
2022/03/24 02:42:33;;;;;;;16.35;12.95;;;;;;;;;;5112584;27;20246;-13
2022/03/24 02:45:02;;;;;;;15.75;13.38;;;;;;;;;;5112893;27;20228;-13
2022/03/24 02:47:29;;;;;;;13.85;12.15;;;;;;;;;;5123575;27;20747;-12
2022/03/24 02:49:57;;;;;;;14.50;12.90;;;;;;;;;;5132925;27;20702;-13
2022/03/24 02:52:24;;;;;;;15.20;13.60;;;;;;;;;;5133310;27;20230;-13
2022/03/24 02:54:51;;;;;;;15.95;12.95;;;;;;;;;;5133317;27;20208;-13
2022/03/24 02:57:20;;;;;;;15.50;13.00;;;;;;;;;;5132524;27;20234;-13
2022/03/24 02:59:48;;;;;;;14.05;12.65;;;;;;;;;;5132754;27;20228;-13
2022/03/24 03:02:16;;;;;;;14.05;12.48;;;;;;;;;;5132938;27;20231;-13
2022/03/24 03:04:45;;;;;;;14.45;12.40;;;;;;;;;;5132895;27;20227;-13
2022/03/24 03:07:13;;;;;;;14.23;11.70;;;;;;;;;;5132359;27;20226;-10
2022/03/24 03:09:41;;;;;;;15.48;11.98;;;;;;;;;;5131991;27;20251;-13
2022/03/24 03:12:10;;;;;;;16.92;12.75;;;;;;;;;;5132164;27;20227;-13
2022/03/24 03:14:38;;;;;;;14.15;12.65;;;;;;;;;;5132474;27;20223;-13
2022/03/24 03:17:06;;;;;;;14.63;12.38;;;;;;;;;;5133101;27;20243;-13
2022/03/24 03:19:34;;;;;;;14.90;12.18;;;;;;;;;;5131308;27;20230;-12
2022/03/24 03:22:03;;;;;;;15.70;12.40;;;;;;;;;;5114508;22;20344;-14
2022/03/24 03:24:30;;;;;;;13.52;11.82;;;;;;;;;;5071581;28;20248;-16
2022/03/24 03:26:57;;;;;;;13.65;12.15;;;;;;;;;;5071950;28;20684;-13
2022/03/24 03:29:25;;;;;;;14.07;12.38;;;;;;;;;;5072205;28;20235;-13
2022/03/24 03:31:54;;;;;;;15.88;12.75;;;;;;;;;;5071455;28;20704;-13
2022/03/24 03:34:24;;;;;;;15.32;12.00;;;;;;;;;;5071723;28;20220;-16
2022/03/24 03:36:51;;;;;;;13.75;12.25;;;;;;;;;;5072126;28;20324;-15
2022/03/24 03:39:19;;;;;;;15.68;12.52;;;;;;;;;;5072190;28;20324;-16
2022/03/24 03:41:46;;;;;;;13.45;11.63;;;;;;;;;;5070891;28;20237;-14
2022/03/24 03:44:13;;;;;;;13.75;12.25;;;;;;;;;;5070961;28;20774;-14
2022/03/24 03:46:40;;;;;;;14.98;11.95;;;;;;;;;;5070850;28;20221;-15
2022/03/24 03:49:09;;;;;;;13.27;11.38;;;;;;;;;;5071007;28;20239;-15
2022/03/24 03:51:37;;;;;;;12.73;11.43;;;;;;;;;;5071446;28;20232;-15
2022/03/24 03:54:05;;;;;;;13.60;12.10;;;;;;;;;;5070746;28;20688;-14
2022/03/24 03:56:32;;;;;;;14.75;11.48;;;;;;;;;;5070931;28;20237;-15
2022/03/24 03:59:00;;;;;;;12.52;11.23;;;;;;;;;;5070776;28;20233;-15
2022/03/24 04:01:29;;;;;;;14.15;11.82;;;;;;;;;;5070888;28;20233;-15
2022/03/24 04:03:57;;;;;;;15.43;11.00;;;;;;;;;;5070106;28;20241;-15
2022/03/24 04:06:26;;;;;;;13.50;10.90;;;;;;;;;;5070838;28;20228;-15
2022/03/24 04:08:53;;;;;;;13.68;11.23;;;;;;;;;;5070671;28;20229;-15
2022/03/24 04:11:20;;;;;;;12.73;10.55;;;;;;;;;;5070373;28;21007;-15
2022/03/24 04:13:48;;;;;;;12.20;10.63;;;;;;;;;;5070284;28;20229;-15
2022/03/24 04:16:15;;;;;;;13.52;10.82;;;;;;;;;;5070119;28;20645;-15
2022/03/24 04:18:43;;;;;;;16.98;10.52;;;;;;;;;;5070767;28;20233;-15
2022/03/24 04:21:10;;;;;;;11.93;10.00;;;;;;;;;;5070388;28;20250;-15
2022/03/24 04:23:39;;;;;;;10.85;9.75;;;;;;;;;;5070502;28;20272;-15
2022/03/24 04:26:07;;;;;;;13.00;10.27;;;;;;;;;;5073279;28;20230;-15
2022/03/24 04:28:34;;;;;;;12.60;10.35;;;;;;;;;;5073864;28;20268;-15
2022/03/24 04:31:02;;;;;;;12.02;10.27;;;;;;;;;;5073972;28;20240;-15
2022/03/24 04:33:30;;;;;;;11.60;10.40;;;;;;;;;;5074221;28;20226;-15
2022/03/24 04:35:59;;;;;;;15.15;9.90;;;;;;;;;;5053934;28;20820;-15
2022/03/24 04:38:27;;;;;;;12.65;10.43;;;;;;;;;;5073034;28;20288;-15
2022/03/24 04:40:56;;;;;;;13.35;10.57;;;;;;;;;;5073783;28;20304;-15
2022/03/24 04:43:23;;;;;;;11.82;9.68;;;;;;;;;;5074200;28;21044;-15
2022/03/24 04:45:51;;;;;;;11.52;9.73;;;;;;;;;;5073601;28;20226;-15
2022/03/24 04:48:19;;;;;;;13.48;10.15;;;;;;;;;;5073061;28;20269;-15
2022/03/24 04:50:46;;;;;;;11.23;9.52;;;;;;;;;;5073879;28;20226;-15
2022/03/24 04:53:14;;;;;;;13.35;10.20;;;;;;;;;;5073970;28;20221;-15
2022/03/24 04:55:42;;;;;;;13.10;9.10;;;;;;;;;;5073401;28;20303;-15
2022/03/24 04:58:11;;;;;;;11.50;9.05;;;;;;;;;;5072999;28;20220;-15
2022/03/24 05:00:38;;;;;;;12.43;10.25;;;;;;;;;;5073227;28;20232;-15
2022/03/24 05:03:05;;;;;;;12.13;9.52;;;;;;;;;;5073927;28;21070;-15
2022/03/24 05:05:33;;;;;;;11.63;10.02;;;;;;;;;;5073501;28;20237;-15
2022/03/24 05:08:00;;;;;;;11.93;10.02;;;;;;;;;;5073134;28;20233;-15
2022/03/24 05:10:28;;;;;;;10.73;9.50;;;;;;;;;;5072307;28;20288;-15
2022/03/24 05:12:55;;;;;;;12.68;9.70;;;;;;;;;;5062244;28;20230;-15
2022/03/24 05:15:24;;;;;;;11.48;9.90;;;;;;;;;;5073443;28;20929;-15
2022/03/24 05:17:51;;;;;;;12.32;9.70;;;;;;;;;;5073484;28;20676;-15
2022/03/24 05:20:19;;;;;;;10.63;9.52;;;;;;;;;;5072535;28;20225;-15
2022/03/24 05:22:46;;;;;;;11.75;9.52;;;;;;;;;;5072741;28;20362;-15
2022/03/24 05:25:14;;;;;;;11.90;9.98;;;;;;;;;;5073158;28;20233;-15
2022/03/24 05:27:41;;;;;;;12.95;9.32;;;;;;;;;;5073549;28;20276;-15
2022/03/24 05:30:09;;;;;;;11.00;9.73;;;;;;;;;;5072832;28;20225;-15
2022/03/24 05:32:40;;;;;;;12.30;9.90;;;;;;;;;;5072382;28;20229;-15
2022/03/24 05:35:07;;;;;;;13.23;10.05;;;;;;;;;;5072719;28;20316;-15
2022/03/24 05:37:35;;;;;;;9.98;8.95;;;;;;;;;;5073734;28;21028;-15
2022/03/24 05:40:02;;;;;;;13.15;9.05;;;;;;;;;;5073133;28;20213;-15
2022/03/24 05:42:29;;;;;;;12.80;9.38;;;;;;;;;;5071312;28;21256;-15
2022/03/24 05:44:57;;;;;;;13.73;9.27;;;;;;;;;;5072590;28;20237;-15
2022/03/24 05:47:24;;;;;;;10.15;8.80;;;;;;;;;;5072508;28;20693;-15
2022/03/24 05:49:53;;;;;;;11.85;9.77;;;;;;;;;;5073009;28;20218;-15
2022/03/24 05:52:20;;;;;;;11.30;9.35;;;;;;;;;;5072554;28;20985;-15
2022/03/24 05:54:48;;;;;;;11.98;9.52;;;;;;;;;;5072185;28;20286;-15
2022/03/24 05:57:15;;;;;;;9.52;8.30;;;;;;;;;;5072238;28;20739;-15
2022/03/24 05:59:42;;;;;;;11.95;9.20;;;;;;;;;;5072650;28;20252;-15
2022/03/24 06:02:10;;;;;;;12.43;9.50;;;;;;;;;;5072452;28;20908;-15
2022/03/24 06:04:40;;;;;;;12.05;9.85;;;;;;;;;;5072162;28;20237;-15
2022/03/24 06:07:09;;;;;;;11.18;9.30;;;;;;;;;;5072512;28;20229;-15
2022/03/24 06:09:36;;;;;;;14.95;9.18;;;;;;;;;;5072542;28;20696;-15
2022/03/24 06:12:05;;;;;;;12.30;9.55;;;;;;;;;;5072401;28;20228;-15
2022/03/24 06:14:34;;;;;;;11.70;9.10;;;;;;;;;;5072405;28;20230;-15
2022/03/24 06:17:01;;;;;;;9.70;8.70;;;;;;;;;;5071737;28;20233;-15
2022/03/24 06:19:28;;;;;;;9.65;8.48;;;;;;;;;;5072277;28;20260;-15
2022/03/24 06:21:56;;;;;;;10.20;8.63;;;;;;;;;;5071344;28;20249;-15
2022/03/24 06:24:25;;;;;;;12.80;9.65;;;;;;;;;;5072488;28;20241;-15
2022/03/24 06:26:53;;;;;;;11.85;9.27;;;;;;;;;;5071595;28;20241;-15
2022/03/24 06:29:21;;;;;;;12.60;9.13;;;;;;;;;;5072054;28;20586;-15
2022/03/24 06:31:48;;;;;;;10.90;8.70;;;;;;;;;;5072242;28;20237;-15
2022/03/24 06:34:16;;;;;;;11.77;8.63;;;;;;;;;;5072201;28;20233;-15
2022/03/24 06:36:43;;;;;;;11.88;8.75;;;;;;;;;;5072135;28;20235;-15
2022/03/24 06:39:10;;;;;;;9.23;7.70;;;;;;;;;;5071439;28;20233;-15
2022/03/24 06:41:39;;;;;;;11.90;8.45;;;;;;;;;;5072096;28;20230;-15
2022/03/24 06:44:07;;;;;;;9.48;7.78;;;;;;;;;;5072129;28;20974;-15
2022/03/24 06:46:35;;;;;;;11.45;7.97;;;;;;;;;;5071134;28;20240;-15
2022/03/24 06:49:03;;;;;;;10.38;8.45;;;;;;;;;;5071085;28;20233;-15
2022/03/24 06:51:30;;;;;;;16.15;8.32;;;;;;;;;;5072064;28;20233;-15
2022/03/24 06:53:58;;;;;;;9.45;7.90;;;;;;;;;;5072564;28;20232;-15
2022/03/24 06:56:25;;;;;;;9.77;7.88;;;;;;;;;;5074357;28;20960;-15
2022/03/24 06:58:54;;;;;;;8.95;8.02;;;;;;;;;;5061573;28;20236;-15
2022/03/24 07:01:21;;;;;;;9.45;7.95;;;;;;;;;;5060489;28;20240;-15
2022/03/24 07:03:49;;;;;;;8.98;7.72;;;;;;;;;;5061506;28;20602;-15
2022/03/24 07:06:16;;;;;;;11.18;8.10;;;;;;;;;;5069470;28;20234;-15
2022/03/24 07:08:44;;;;;;;9.73;8.05;;;;;;;;;;5063878;28;20244;-15
2022/03/24 07:11:11;;;;;;;9.20;8.05;;;;;;;;;;5064239;28;20234;-15
2022/03/24 07:13:38;;;;;;;11.88;8.70;;;;;;;;;;5060251;28;20228;-15
2022/03/24 07:16:10;;;;;;;9.70;8.70;;;;;;;;;;5071825;28;20982;-15
2022/03/24 07:18:37;;;;;;;9.85;8.10;;;;;;;;;;5071417;28;20228;-15
2022/03/24 07:21:04;;;;;;;12.70;8.18;;;;;;;;;;5070822;28;21737;-15
2022/03/24 07:23:32;;;;;;;10.30;7.75;;;;;;;;;;5070998;28;20356;-15
2022/03/24 07:25:59;;;;;;;11.50;8.15;;;;;;;;;;5071306;28;20233;-15
2022/03/24 07:28:26;;;;;;;10.30;8.27;;;;;;;;;;5071167;28;20260;-15
2022/03/24 07:30:54;;;;;;;10.25;8.73;;;;;;;;;;5075297;28;20229;-15
2022/03/24 07:33:23;;;;;;;9.18;8.10;;;;;;;;;;5080178;28;20696;-15
2022/03/24 07:35:51;;;;;;;15.63;8.55;;;;;;;;;;5076903;28;20237;-15
2022/03/24 07:38:18;;;;;;;17.85;8.68;;;;;;;;;;5078708;28;20237;-15
2022/03/24 07:40:52;;;;;;;16.88;8.32;;;;;;;;;;5077032;28;20783;-15
2022/03/24 07:43:19;;;;;;;16.02;9.20;;;;;;;;;;5077247;28;20240;-15
2022/03/24 07:45:47;;;;;;;16.75;8.65;;;;;;;;;;5076282;28;20239;-15
2022/03/24 07:48:16;;;;;;;13.45;9.45;;;;;;;;;;5078763;28;20241;-15
2022/03/24 07:50:46;;;;;;;20.42;8.95;;;;;;;;;;5079059;28;20232;-15
2022/03/24 07:53:37;;;;;;;14.57;8.85;;;;;;;;;;5077751;28;20230;-15
2022/03/24 07:56:05;;;;;;;11.32;8.43;;;;;;;;;;5066234;28;20233;-15
2022/03/24 07:58:32;;;;;;;13.57;9.27;;;;;;;;;;5070869;28;20236;-15
2022/03/24 08:01:00;;;;;;;26.93;13.93;;;;;;;;;;5082244;28;20416;-15
2022/03/24 08:03:28;;;;;;;22.88;13.35;;;;;;;;;;5084973;28;20771;-15
2022/03/24 08:05:57;;;;;;;23.98;13.27;;;;;;;;;;5081515;28;20320;-15
2022/03/24 08:08:26;;;;;;;24.50;12.40;;;;;;;;;;5084263;28;20587;-15
2022/03/24 08:10:54;;;;;;;28.13;12.18;;;;;;;;;;5077910;28;21055;-15
2022/03/24 08:13:21;;;;;;;24.35;13.32;;;;;;;;;;5086295;28;20949;-15
2022/03/24 08:15:48;;;;;;;25.02;13.13;;;;;;;;;;5071347;28;20229;-15
2022/03/24 08:18:16;;;;;;;21.30;10.85;;;;;;;;;;5079405;28;21118;-15
2022/03/24 08:20:44;;;;;;;23.42;14.68;;;;;;;;;;5081264;28;20684;-15
2022/03/24 08:23:13;;;;;;;27.17;16.50;;;;;;;;;;5076407;28;21063;-14
2022/03/24 08:25:41;;;;;;;19.13;15.27;;;;;;;;;;5069473;28;20429;-14
2022/03/24 08:28:08;;;;;;;21.55;15.90;;;;;;;;;;5070024;28;20421;-15
2022/03/24 08:30:35;;;;;;;19.33;15.15;;;;;;;;;;5068751;28;20233;-14
2022/03/24 08:33:03;;;;;;;26.73;16.17;;;;;;;;;;5071466;28;20229;-14
2022/03/24 08:35:30;;;;;;;21.42;16.55;;;;;;;;;;5068338;28;20238;-14
2022/03/24 08:37:59;;;;;;;22.38;16.52;;;;;;;;;;5070566;28;20229;-14
2022/03/24 08:40:28;;;;;;;22.45;16.80;;;;;;;;;;5067135;28;20238;-14
2022/03/24 08:42:55;;;;;;;20.05;16.33;;;;;;;;;;5076261;28;20233;-14
2022/03/24 08:45:23;;;;;;;22.00;15.73;;;;;;;;;;5072378;28;20236;-15
2022/03/24 08:47:50;;;;;;;20.40;14.98;;;;;;;;;;5074889;28;20244;-14
2022/03/24 08:50:18;;;;;;;16.75;14.32;;;;;;;;;;5068419;28;20230;-15
2022/03/24 08:52:45;;;;;;;18.43;14.17;;;;;;;;;;5072619;28;21756;-14
2022/03/24 08:55:14;;;;;;;20.40;13.57;;;;;;;;;;5070011;28;20896;-14
2022/03/24 08:57:43;;;;;;;19.70;13.02;;;;;;;;;;5069256;28;20711;-14
2022/03/24 09:00:13;;;;;;;21.50;12.18;;;;;;;;;;5066192;28;20229;-15
2022/03/24 09:02:41;;;;;;;22.77;12.43;;;;;;;;;;5069065;28;20716;-14
2022/03/24 09:05:08;;;;;;;21.30;12.07;;;;;;;;;;5070968;28;20230;-15
2022/03/24 09:07:36;;;;;;;32.42;12.13;;;;;;;;;;5068379;28;20247;-14
2022/03/24 09:10:05;;;;;;;21.75;11.98;;;;;;;;;;5070214;28;20260;-14
2022/03/24 09:12:32;;;;;;;28.27;16.90;;;;;;;;;;5070987;28;20406;-14
2022/03/24 09:15:05;;;;;;;21.83;12.35;;;;;;;;;;5072329;28;20241;-14
2022/03/24 09:17:32;;;;;;;33.78;22.45;;;;;;;;;;5068064;28;20439;-15
2022/03/24 09:20:00;;;;;;;30.88;19.92;;;;;;;;;;5071115;28;20233;-14
2022/03/24 09:22:27;;;;;;;26.60;20.37;;;;;;;;;;5072341;28;20442;-15
2022/03/24 09:24:55;;;;;;;31.60;17.95;;;;;;;;;;5074672;28;20233;-14
2022/03/24 09:27:22;;;;;;;25.85;16.92;;;;;;;;;;5071766;28;20237;-14
2022/03/24 09:29:50;;;;;;;31.85;19.58;;;;;;;;;;5071118;28;20230;-15
2022/03/24 09:32:19;;;;;;;23.00;16.85;;;;;;;;;;5068909;28;20229;-14
2022/03/24 09:34:46;;;;;;;31.85;19.25;;;;;;;;;;5067490;28;20413;-14
2022/03/24 09:37:17;;;;;;;27.25;18.38;;;;;;;;;;5068246;28;20240;-14
2022/03/24 09:39:44;;;;;;;30.02;17.30;;;;;;;;;;5068666;28;20269;-14
2022/03/24 09:42:12;;;;;;;25.52;18.25;;;;;;;;;;5068748;28;20260;-14
2022/03/24 09:44:40;;;;;;;28.30;17.00;;;;;;;;;;5066517;28;20233;-14
2022/03/24 09:47:11;;;;;;;26.90;17.58;;;;;;;;;;5072230;28;20628;-15
2022/03/24 09:49:40;;;;;;;23.27;16.90;;;;;;;;;;5071755;28;20237;-14
2022/03/24 09:52:08;;;;;;;24.85;16.42;;;;;;;;;;5075685;28;20233;-15
2022/03/24 09:54:35;;;;;;;33.00;17.27;;;;;;;;;;5068447;28;20236;-15
2022/03/24 09:57:03;;;;;;;27.95;17.02;;;;;;;;;;5076928;28;20237;-14
2022/03/24 09:59:31;;;;;;;21.10;15.23;;;;;;;;;;5068671;28;20237;-14
2022/03/24 10:01:59;;;;;;;21.20;15.52;;;;;;;;;;5068461;28;20801;-14
2022/03/24 10:04:26;;;;;;;28.52;14.65;;;;;;;;;;5067456;28;20265;-14
2022/03/24 10:07:02;;;;;;;26.08;14.88;;;;;;;;;;5067818;28;20521;-14
2022/03/24 10:09:36;;;;;;;23.25;13.80;;;;;;;;;;5068629;28;20225;-14
2022/03/24 10:12:03;;;;;;;21.58;14.18;;;;;;;;;;5067817;28;20244;-14
2022/03/24 10:14:31;;;;;;;18.95;13.88;;;;;;;;;;5067276;28;20426;-14
2022/03/24 10:17:09;;;;;;;17.15;13.05;;;;;;;;;;5067984;28;20233;-15
2022/03/24 10:19:36;;;;;;;18.10;12.20;;;;;;;;;;5068782;28;20234;-14
2022/03/24 10:22:09;;;;;;;18.97;13.03;;;;;;;;;;5066973;28;20411;-14
2022/03/24 10:24:39;;;;;;;21.73;15.95;;;;;;;;;;5067360;28;20229;-14
2022/03/24 10:27:07;;;;;;;28.77;18.10;;;;;;;;;;5069703;28;20888;-14
2022/03/24 10:29:35;;;;;;;21.85;16.65;;;;;;;;;;5068938;28;20241;-14
2022/03/24 10:32:03;;;;;;;25.70;16.38;;;;;;;;;;5071136;28;20982;-14
2022/03/24 10:34:31;;;;;;;20.70;16.90;;;;;;;;;;5071497;28;20233;-14
2022/03/24 10:36:58;;;;;;;20.25;15.75;;;;;;;;;;5074880;28;20244;-14
2022/03/24 10:39:27;;;;;;;21.95;16.15;;;;;;;;;;5068278;28;20272;-14
2022/03/24 10:41:55;;;;;;;22.15;16.13;;;;;;;;;;5067386;28;20234;-14
2022/03/24 10:44:22;;;;;;;25.25;17.48;;;;;;;;;;5066757;28;20427;-15
2022/03/24 10:46:49;;;;;;;19.70;14.60;;;;;;;;;;5073215;28;20621;-14
2022/03/24 10:49:18;;;;;;;19.40;14.23;;;;;;;;;;5071256;28;20233;-14
2022/03/24 10:51:46;;;;;;;20.60;14.23;;;;;;;;;;5073262;28;20685;-14
2022/03/24 10:54:22;;;;;;;17.00;13.15;;;;;;;;;;5069466;28;21012;-14
2022/03/24 10:56:54;;;;;;;16.90;12.43;;;;;;;;;;5058183;28;20244;-15
2022/03/24 10:59:22;;;;;;;18.27;13.25;;;;;;;;;;5066627;28;20233;-14
2022/03/24 11:01:50;;;;;;;20.17;13.20;;;;;;;;;;5066484;28;20240;-14
2022/03/24 11:04:18;;;;;;;17.35;12.57;;;;;;;;;;5063711;28;20321;-14
2022/03/24 11:06:48;;;;;;;15.82;12.05;;;;;;;;;;5065590;28;20241;-15
2022/03/24 11:09:20;;;;;;;20.45;12.55;;;;;;;;;;5067202;28;20241;-14
2022/03/24 11:11:48;;;;;;;17.50;11.73;;;;;;;;;;5063964;28;20237;-14
2022/03/24 11:14:16;;;;;;;18.75;12.90;;;;;;;;;;5066664;28;20226;-14
2022/03/24 11:16:44;;;;;;;27.00;19.52;;;;;;;;;;5068403;28;20756;-14
2022/03/24 11:19:15;;;;;;;28.17;19.65;;;;;;;;;;5069039;28;20273;-15
2022/03/24 11:21:51;;;;;;;28.38;17.42;;;;;;;;;;5068551;28;20242;-14
2022/03/24 11:24:19;;;;;;;25.30;17.60;;;;;;;;;;5067508;28;20321;-15
2022/03/24 11:26:46;;;;;;;27.08;17.63;;;;;;;;;;5070663;28;20244;-14
2022/03/24 11:29:14;;;;;;;24.92;17.15;;;;;;;;;;5065955;28;20271;-15
2022/03/24 11:31:43;;;;;;;28.20;17.60;;;;;;;;;;5068516;28;20242;-14
2022/03/24 11:34:10;;;;;;;25.80;17.63;;;;;;;;;;5067931;28;20240;-14
2022/03/24 11:36:38;;;;;;;30.17;17.73;;;;;;;;;;5071909;28;20763;-14
2022/03/24 11:39:09;;;;;;;30.48;18.67;;;;;;;;;;5069840;28;20915;-15
2022/03/24 11:41:36;;;;;;;26.30;19.03;;;;;;;;;;5069058;28;20437;-14
2022/03/24 11:44:04;;;;;;;25.60;18.55;;;;;;;;;;5071419;28;20439;-14
2022/03/24 11:46:34;;;;;;;23.52;17.98;;;;;;;;;;5069273;28;20237;-14
2022/03/24 11:49:21;;;;;;;22.27;17.88;;;;;;;;;;5072143;28;20584;-14
2022/03/24 11:51:49;;;;;;;27.75;18.98;;;;;;;;;;5076349;28;20807;-14
2022/03/24 11:54:27;;;;;;;26.90;18.15;;;;;;;;;;5073225;28;20235;-14
2022/03/24 11:57:13;;;;;;;25.77;17.25;;;;;;;;;;5069425;28;20236;-14
2022/03/24 11:59:41;;;;;;;30.13;19.30;;;;;;;;;;5077682;28;20432;-14
2022/03/24 12:02:16;;;;;;;24.92;15.55;;;;;;;;;;5074443;28;20265;-14
2022/03/24 12:04:45;;;;;;;23.15;15.07;;;;;;;;;;5072185;28;20271;-14
2022/03/24 12:07:17;;;;;;;22.77;15.30;;;;;;;;;;5073431;28;20810;-14
2022/03/24 12:09:54;;;;;;;22.02;14.40;;;;;;;;;;5074120;28;20236;-14
2022/03/24 12:12:21;;;;;;;16.92;13.48;;;;;;;;;;5074376;28;20593;-14
2022/03/24 12:14:53;;;;;;;19.20;13.05;;;;;;;;;;5074124;28;20320;-14
2022/03/24 12:17:22;;;;;;;20.42;13.85;;;;;;;;;;5074284;28;20730;-14
2022/03/24 12:19:51;;;;;;;16.05;12.27;;;;;;;;;;5073749;28;20234;-14
2022/03/24 12:22:37;;;;;;;18.05;12.20;;;;;;;;;;5073782;28;20256;-14
2022/03/24 12:25:35;;;;;;;15.93;11.88;;;;;;;;;;5074679;28;20221;-14
2022/03/24 12:28:07;;;;;;;14.23;11.85;;;;;;;;;;5073719;28;20230;-14
2022/03/24 12:31:01;;;;;;;16.30;12.18;;;;;;;;;;5073671;28;21070;-14
2022/03/24 12:33:35;;;;;;;14.55;12.18;;;;;;;;;;5073910;28;20217;-14
2022/03/24 12:36:05;;;;;;;16.23;12.25;;;;;;;;;;5074092;28;20594;-14
2022/03/24 12:38:43;;;;;;;13.95;10.60;;;;;;;;;;5073898;28;20224;-14
2022/03/24 12:41:17;;;;;;;12.80;10.32;;;;;;;;;;5061865;28;21075;-14
2022/03/24 12:43:46;;;;;;;15.18;10.85;;;;;;;;;;5074028;28;20248;-14
2022/03/24 12:46:20;;;;;;;11.85;9.98;;;;;;;;;;5073413;28;20233;-14
2022/03/24 12:48:47;;;;;;;13.57;10.18;;;;;;;;;;5073500;28;20229;-14
2022/03/24 12:51:21;;;;;;;14.25;9.60;;;;;;;;;;5072891;28;20236;-14
2022/03/24 12:53:52;;;;;;;12.25;9.85;;;;;;;;;;5073758;28;20210;-14
2022/03/24 12:56:19;;;;;;;12.55;10.45;;;;;;;;;;5073690;28;20209;-14
2022/03/24 12:58:51;;;;;;;11.23;9.77;;;;;;;;;;5073412;28;20217;-14
2022/03/24 13:01:18;;;;;;;12.00;9.52;;;;;;;;;;5073549;28;20666;-14
2022/03/24 13:03:45;;;;;;;12.65;9.88;;;;;;;;;;5072871;28;20230;-14
2022/03/24 13:06:13;;;;;;;12.75;10.40;;;;;;;;;;5073754;28;20295;-14
2022/03/24 13:08:41;;;;;;;14.20;10.02;;;;;;;;;;5073762;28;20986;-14
2022/03/24 13:11:09;;;;;;;14.27;9.43;;;;;;;;;;5073255;28;20229;-14
2022/03/24 13:13:37;;;;;;;13.30;8.95;;;;;;;;;;5072659;28;20233;-14
2022/03/24 13:16:04;;;;;;;13.85;9.63;;;;;;;;;;5073135;28;20222;-14
2022/03/24 13:18:32;;;;;;;11.05;9.25;;;;;;;;;;5073354;28;20237;-14
2022/03/24 13:21:00;;;;;;;11.38;8.85;;;;;;;;;;5072825;28;20251;-15
2022/03/24 13:23:28;;;;;;;10.70;8.70;;;;;;;;;;5073347;28;20221;-14
2022/03/24 13:25:58;;;;;;;10.98;8.50;;;;;;;;;;5072372;28;20380;-14
2022/03/24 13:28:26;;;;;;;11.68;8.68;;;;;;;;;;5073081;28;20225;-14
2022/03/24 13:30:54;;;;;;;10.27;8.57;;;;;;;;;;5073003;28;20785;-14
2022/03/24 13:33:22;;;;;;;9.20;8.30;;;;;;;;;;5072937;28;20280;-14
2022/03/24 13:35:50;;;;;;;10.57;7.95;;;;;;;;;;5072045;28;20236;-14
2022/03/24 13:38:20;;;;;;;11.60;8.13;;;;;;;;;;5072653;28;20788;-14
2022/03/24 13:40:49;;;;;;;10.15;7.82;;;;;;;;;;5072650;28;20221;-14
2022/03/24 13:43:18;;;;;;;10.52;7.53;;;;;;;;;;5073090;28;20221;-14
2022/03/24 13:45:48;;;;;;;9.05;7.60;;;;;;;;;;5072515;28;20253;-14
2022/03/24 13:48:17;;;;;;;12.32;7.90;;;;;;;;;;5072488;28;20348;-14
2022/03/24 13:50:45;;;;;;;10.38;7.53;;;;;;;;;;5072725;28;20214;-14
2022/03/24 13:53:13;;;;;;;11.00;7.35;;;;;;;;;;5072760;28;20247;-14
2022/03/24 13:55:41;;;;;;;9.20;7.60;;;;;;;;;;5072558;28;20626;-14
2022/03/24 13:58:09;;;;;;;9.85;8.00;;;;;;;;;;5070960;28;20240;-14
2022/03/24 14:00:39;;;;;;;8.82;7.75;;;;;;;;;;5072565;28;20236;-14
2022/03/24 14:03:08;;;;;;;8.93;7.50;;;;;;;;;;5072657;28;20407;-14
2022/03/24 14:05:46;;;;;;;11.10;7.55;;;;;;;;;;5072440;28;20226;-14
2022/03/24 14:08:15;;;;;;;10.32;7.13;;;;;;;;;;5071712;28;20646;-14
2022/03/24 14:10:44;;;;;;;11.30;6.95;;;;;;;;;;5072374;28;20224;-14
2022/03/24 14:13:15;;;;;;;11.48;7.47;;;;;;;;;;5072262;28;20229;-14
2022/03/24 14:15:44;;;;;;;12.77;7.60;;;;;;;;;;5072670;28;20955;-14
2022/03/24 14:18:14;;;;;;;7.93;7.10;;;;;;;;;;5072441;28;20237;-14
2022/03/24 14:20:42;;;;;;;9.50;7.55;;;;;;;;;;5071760;28;20236;-14
2022/03/24 14:23:10;;;;;;;7.25;6.40;;;;;;;;;;5071978;28;20289;-14
2022/03/24 14:25:37;;;;;;;8.23;6.78;;;;;;;;;;5072518;28;20221;-14
2022/03/24 14:28:05;;;;;;;10.98;7.10;;;;;;;;;;5071900;28;20225;-14
2022/03/24 14:30:33;;;;;;;8.50;6.32;;;;;;;;;;5071541;28;20233;-14